KFRG/FRG METAR and TAF weather

Enter ICAO airport designator
Station Type Date Time Source
KFRG METAR 2021/03/06 00:53 UTC NOAA

KFRG 060053Z 31008KT 10SM CLR 01/M17 A2988 RMK AO2 SLP119 T00111167


Station Type Date Time Source
KFRG Decoded METAR 2021/03/06 00:53 UTC NOAA

FARMINGDALE REPUBLIC AIRPORT , NY, United States (KFRG) 40-44N 073-25W 21M
Mar 05, 2021 - 07:53 PM EST / 2021.03.06 0053 UTC
Wind: from the NW (310 degrees) at 9 MPH (8 KT):0
Visibility: 10 mile(s):0
Sky conditions: clear
Temperature: 34.0 F (1.1 C)
Windchill: 26 F (-3 C):1
Dew Point: 1.9 F (-16.7 C)
Relative Humidity: 25%
Pressure (altimeter): 29.88 in. Hg (1011 hPa)
ob: KFRG 060053Z 31008KT 10SM CLR 01/M17 A2988 RMK AO2 SLP119 T00111167
cycle: 1

Station Type Date Time Source
KFRG TAF UTC NOAA

Error!

Example: see airport list